sensor_id;sensor_type;location;lat;lon;timestamp;P1;durP1;ratioP1;P2;durP2;ratioP2
14470;SDS011;7321;50.802;4.336;2024-02-21T00:00:50;15.83;;;9.17;;
14470;SDS011;7321;50.802;4.336;2024-02-21T00:03:17;16.47;;;9.53;;
14470;SDS011;7321;50.802;4.336;2024-02-21T00:05:42;18.87;;;9.43;;
14470;SDS011;7321;50.802;4.336;2024-02-21T00:08:08;22.47;;;10.20;;
14470;SDS011;7321;50.802;4.336;2024-02-21T00:10:34;21.77;;;9.13;;
14470;SDS011;7321;50.802;4.336;2024-02-21T00:13:01;21.50;;;9.73;;
14470;SDS011;7321;50.802;4.336;2024-02-21T00:15:26;18.47;;;9.60;;
14470;SDS011;7321;50.802;4.336;2024-02-21T00:17:52;24.33;;;10.60;;
14470;SDS011;7321;50.802;4.336;2024-02-21T00:20:18;15.13;;;9.33;;
14470;SDS011;7321;50.802;4.336;2024-02-21T00:22:45;18.50;;;9.20;;
14470;SDS011;7321;50.802;4.336;2024-02-21T00:25:11;14.93;;;8.57;;
14470;SDS011;7321;50.802;4.336;2024-02-21T00:27:37;17.30;;;8.30;;
14470;SDS011;7321;50.802;4.336;2024-02-21T00:30:04;18.57;;;8.13;;
14470;SDS011;7321;50.802;4.336;2024-02-21T00:32:31;19.17;;;9.17;;
14470;SDS011;7321;50.802;4.336;2024-02-21T00:34:59;14.30;;;8.03;;
14470;SDS011;7321;50.802;4.336;2024-02-21T00:37:25;13.93;;;7.93;;
14470;SDS011;7321;50.802;4.336;2024-02-21T00:39:50;15.83;;;8.33;;
14470;SDS011;7321;50.802;4.336;2024-02-21T00:42:16;14.40;;;8.23;;
14470;SDS011;7321;50.802;4.336;2024-02-21T00:44:43;19.63;;;9.37;;
14470;SDS011;7321;50.802;4.336;2024-02-21T00:47:09;20.87;;;9.67;;
14470;SDS011;7321;50.802;4.336;2024-02-21T00:49:35;17.57;;;10.40;;
14470;SDS011;7321;50.802;4.336;2024-02-21T00:52:01;21.37;;;10.53;;
14470;SDS011;7321;50.802;4.336;2024-02-21T00:54:27;22.40;;;12.30;;
14470;SDS011;7321;50.802;4.336;2024-02-21T00:56:53;19.17;;;11.27;;
14470;SDS011;7321;50.802;4.336;2024-02-21T00:59:18;20.50;;;10.63;;
14470;SDS011;7321;50.802;4.336;2024-02-21T01:01:44;19.93;;;10.70;;
14470;SDS011;7321;50.802;4.336;2024-02-21T01:04:10;22.20;;;11.03;;
14470;SDS011;7321;50.802;4.336;2024-02-21T01:06:36;20.00;;;11.50;;
14470;SDS011;7321;50.802;4.336;2024-02-21T01:09:02;21.70;;;11.07;;
14470;SDS011;7321;50.802;4.336;2024-02-21T01:11:28;19.40;;;10.37;;
14470;SDS011;7321;50.802;4.336;2024-02-21T01:13:54;17.30;;;10.47;;
14470;SDS011;7321;50.802;4.336;2024-02-21T01:16:21;20.17;;;11.77;;
14470;SDS011;7321;50.802;4.336;2024-02-21T01:18:46;18.10;;;10.37;;
14470;SDS011;7321;50.802;4.336;2024-02-21T01:21:12;16.90;;;10.07;;
14470;SDS011;7321;50.802;4.336;2024-02-21T01:23:38;19.87;;;9.93;;
14470;SDS011;7321;50.802;4.336;2024-02-21T01:26:05;17.97;;;10.07;;
14470;SDS011;7321;50.802;4.336;2024-02-21T01:28:33;18.73;;;10.33;;
14470;SDS011;7321;50.802;4.336;2024-02-21T01:31:00;16.93;;;10.00;;
14470;SDS011;7321;50.802;4.336;2024-02-21T01:33:26;19.50;;;9.97;;
14470;SDS011;7321;50.802;4.336;2024-02-21T01:35:52;17.43;;;10.13;;
14470;SDS011;7321;50.802;4.336;2024-02-21T01:38:18;19.33;;;10.20;;
14470;SDS011;7321;50.802;4.336;2024-02-21T01:40:44;18.93;;;10.07;;
14470;SDS011;7321;50.802;4.336;2024-02-21T01:43:16;21.10;;;9.80;;
14470;SDS011;7321;50.802;4.336;2024-02-21T01:45:49;15.03;;;10.00;;
14470;SDS011;7321;50.802;4.336;2024-02-21T01:48:17;22.73;;;11.10;;
14470;SDS011;7321;50.802;4.336;2024-02-21T01:50:47;17.87;;;10.70;;
14470;SDS011;7321;50.802;4.336;2024-02-21T01:53:19;17.50;;;11.50;;
14470;SDS011;7321;50.802;4.336;2024-02-21T01:55:56;19.23;;;11.17;;
14470;SDS011;7321;50.802;4.336;2024-02-21T01:58:22;21.90;;;11.63;;
14470;SDS011;7321;50.802;4.336;2024-02-21T02:00:49;18.33;;;11.10;;
14470;SDS011;7321;50.802;4.336;2024-02-21T02:03:16;18.93;;;11.77;;
14470;SDS011;7321;50.802;4.336;2024-02-21T02:05:45;18.63;;;10.63;;
14470;SDS011;7321;50.802;4.336;2024-02-21T02:08:13;22.20;;;10.80;;
14470;SDS011;7321;50.802;4.336;2024-02-21T02:10:40;18.80;;;11.07;;
14470;SDS011;7321;50.802;4.336;2024-02-21T02:13:06;18.17;;;11.07;;
14470;SDS011;7321;50.802;4.336;2024-02-21T02:18:24;18.67;;;9.60;;
14470;SDS011;7321;50.802;4.336;2024-02-21T02:20:50;17.87;;;11.00;;
14470;SDS011;7321;50.802;4.336;2024-02-21T02:23:21;20.77;;;10.40;;
14470;SDS011;7321;50.802;4.336;2024-02-21T02:25:51;21.53;;;10.93;;
14470;SDS011;7321;50.802;4.336;2024-02-21T02:28:17;15.70;;;9.37;;
14470;SDS011;7321;50.802;4.336;2024-02-21T02:30:43;16.47;;;9.70;;
14470;SDS011;7321;50.802;4.336;2024-02-21T02:33:09;17.10;;;10.70;;
14470;SDS011;7321;50.802;4.336;2024-02-21T02:35:35;18.40;;;10.20;;
14470;SDS011;7321;50.802;4.336;2024-02-21T02:38:02;16.87;;;10.70;;
14470;SDS011;7321;50.802;4.336;2024-02-21T02:40:28;16.40;;;9.50;;
14470;SDS011;7321;50.802;4.336;2024-02-21T02:42:54;16.47;;;10.00;;
14470;SDS011;7321;50.802;4.336;2024-02-21T02:45:20;16.63;;;9.80;;
14470;SDS011;7321;50.802;4.336;2024-02-21T02:47:51;16.43;;;9.77;;
14470;SDS011;7321;50.802;4.336;2024-02-21T02:50:19;18.73;;;10.20;;
14470;SDS011;7321;50.802;4.336;2024-02-21T02:52:45;20.07;;;10.17;;
14470;SDS011;7321;50.802;4.336;2024-02-21T02:55:11;20.47;;;9.97;;
14470;SDS011;7321;50.802;4.336;2024-02-21T02:57:37;15.33;;;8.77;;
14470;SDS011;7321;50.802;4.336;2024-02-21T03:00:03;19.87;;;11.00;;
14470;SDS011;7321;50.802;4.336;2024-02-21T03:02:30;20.53;;;9.83;;
14470;SDS011;7321;50.802;4.336;2024-02-21T03:04:56;16.43;;;9.73;;
14470;SDS011;7321;50.802;4.336;2024-02-21T03:07:23;18.10;;;9.70;;
14470;SDS011;7321;50.802;4.336;2024-02-21T03:09:50;17.93;;;10.43;;
14470;SDS011;7321;50.802;4.336;2024-02-21T03:12:16;15.33;;;9.97;;
14470;SDS011;7321;50.802;4.336;2024-02-21T03:14:50;16.70;;;10.00;;
14470;SDS011;7321;50.802;4.336;2024-02-21T03:17:16;16.43;;;9.70;;
14470;SDS011;7321;50.802;4.336;2024-02-21T03:19:41;14.97;;;9.77;;
14470;SDS011;7321;50.802;4.336;2024-02-21T03:22:07;19.50;;;9.77;;
14470;SDS011;7321;50.802;4.336;2024-02-21T03:24:33;17.07;;;10.07;;
14470;SDS011;7321;50.802;4.336;2024-02-21T03:26:59;17.37;;;9.80;;
14470;SDS011;7321;50.802;4.336;2024-02-21T03:29:25;19.17;;;10.30;;
14470;SDS011;7321;50.802;4.336;2024-02-21T03:31:50;15.70;;;9.97;;
14470;SDS011;7321;50.802;4.336;2024-02-21T03:34:16;14.90;;;9.83;;
14470;SDS011;7321;50.802;4.336;2024-02-21T03:36:42;22.30;;;10.43;;
14470;SDS011;7321;50.802;4.336;2024-02-21T03:39:08;17.53;;;9.57;;
14470;SDS011;7321;50.802;4.336;2024-02-21T03:41:34;18.13;;;10.30;;
14470;SDS011;7321;50.802;4.336;2024-02-21T03:44:00;18.87;;;9.47;;
14470;SDS011;7321;50.802;4.336;2024-02-21T03:46:27;20.97;;;11.40;;
14470;SDS011;7321;50.802;4.336;2024-02-21T03:48:52;24.07;;;9.97;;
14470;SDS011;7321;50.802;4.336;2024-02-21T03:51:18;16.10;;;10.17;;
14470;SDS011;7321;50.802;4.336;2024-02-21T03:53:44;16.97;;;10.07;;
14470;SDS011;7321;50.802;4.336;2024-02-21T03:56:10;17.20;;;9.50;;
14470;SDS011;7321;50.802;4.336;2024-02-21T03:58:36;18.40;;;10.40;;
14470;SDS011;7321;50.802;4.336;2024-02-21T04:01:03;14.33;;;9.33;;
14470;SDS011;7321;50.802;4.336;2024-02-21T04:03:29;19.23;;;10.37;;
14470;SDS011;7321;50.802;4.336;2024-02-21T04:05:56;19.50;;;10.57;;
14470;SDS011;7321;50.802;4.336;2024-02-21T04:08:22;17.97;;;9.87;;
14470;SDS011;7321;50.802;4.336;2024-02-21T04:10:48;16.80;;;10.20;;
14470;SDS011;7321;50.802;4.336;2024-02-21T04:13:14;16.37;;;9.97;;
14470;SDS011;7321;50.802;4.336;2024-02-21T04:15:40;17.13;;;10.57;;
14470;SDS011;7321;50.802;4.336;2024-02-21T04:18:06;15.97;;;10.07;;
14470;SDS011;7321;50.802;4.336;2024-02-21T04:20:32;19.47;;;10.10;;
14470;SDS011;7321;50.802;4.336;2024-02-21T04:22:59;19.97;;;11.03;;
14470;SDS011;7321;50.802;4.336;2024-02-21T04:25:25;17.60;;;10.17;;
14470;SDS011;7321;50.802;4.336;2024-02-21T04:27:51;22.67;;;10.47;;
14470;SDS011;7321;50.802;4.336;2024-02-21T04:30:17;19.77;;;10.77;;
14470;SDS011;7321;50.802;4.336;2024-02-21T04:32:43;19.63;;;10.90;;
14470;SDS011;7321;50.802;4.336;2024-02-21T04:35:09;17.97;;;10.30;;
14470;SDS011;7321;50.802;4.336;2024-02-21T04:37:35;18.50;;;10.23;;
14470;SDS011;7321;50.802;4.336;2024-02-21T04:40:00;17.80;;;10.07;;
14470;SDS011;7321;50.802;4.336;2024-02-21T04:42:26;15.47;;;10.13;;
14470;SDS011;7321;50.802;4.336;2024-02-21T04:44:52;14.07;;;9.93;;
14470;SDS011;7321;50.802;4.336;2024-02-21T04:47:18;18.27;;;10.50;;
14470;SDS011;7321;50.802;4.336;2024-02-21T04:49:48;15.90;;;10.60;;
14470;SDS011;7321;50.802;4.336;2024-02-21T04:52:14;16.33;;;10.43;;
14470;SDS011;7321;50.802;4.336;2024-02-21T04:54:40;14.87;;;10.30;;
14470;SDS011;7321;50.802;4.336;2024-02-21T04:57:06;14.23;;;9.67;;
14470;SDS011;7321;50.802;4.336;2024-02-21T04:59:32;16.43;;;10.17;;
14470;SDS011;7321;50.802;4.336;2024-02-21T05:01:57;15.57;;;9.87;;
14470;SDS011;7321;50.802;4.336;2024-02-21T05:04:24;16.03;;;9.47;;
14470;SDS011;7321;50.802;4.336;2024-02-21T05:06:49;19.07;;;9.93;;
14470;SDS011;7321;50.802;4.336;2024-02-21T05:09:15;19.17;;;10.07;;
14470;SDS011;7321;50.802;4.336;2024-02-21T05:11:41;14.23;;;9.40;;
14470;SDS011;7321;50.802;4.336;2024-02-21T05:14:07;14.57;;;9.47;;
14470;SDS011;7321;50.802;4.336;2024-02-21T05:16:33;13.20;;;8.87;;
14470;SDS011;7321;50.802;4.336;2024-02-21T05:18:58;10.87;;;8.57;;
14470;SDS011;7321;50.802;4.336;2024-02-21T05:21:24;13.77;;;9.23;;
14470;SDS011;7321;50.802;4.336;2024-02-21T05:23:50;14.30;;;8.40;;
14470;SDS011;7321;50.802;4.336;2024-02-21T05:26:23;12.43;;;8.13;;
14470;SDS011;7321;50.802;4.336;2024-02-21T05:28:50;12.13;;;9.53;;
14470;SDS011;7321;50.802;4.336;2024-02-21T05:31:17;12.33;;;8.63;;
14470;SDS011;7321;50.802;4.336;2024-02-21T05:33:44;14.70;;;8.17;;
14470;SDS011;7321;50.802;4.336;2024-02-21T05:36:10;14.73;;;8.43;;
14470;SDS011;7321;50.802;4.336;2024-02-21T05:38:37;12.00;;;8.03;;
14470;SDS011;7321;50.802;4.336;2024-02-21T05:41:03;16.30;;;7.70;;
14470;SDS011;7321;50.802;4.336;2024-02-21T05:43:29;12.17;;;7.83;;
14470;SDS011;7321;50.802;4.336;2024-02-21T05:45:55;12.17;;;8.50;;
14470;SDS011;7321;50.802;4.336;2024-02-21T05:48:21;11.17;;;7.03;;
14470;SDS011;7321;50.802;4.336;2024-02-21T05:50:48;16.17;;;7.17;;
14470;SDS011;7321;50.802;4.336;2024-02-21T05:53:14;12.80;;;7.30;;
14470;SDS011;7321;50.802;4.336;2024-02-21T05:55:40;11.57;;;7.33;;
14470;SDS011;7321;50.802;4.336;2024-02-21T05:58:06;11.27;;;6.90;;
14470;SDS011;7321;50.802;4.336;2024-02-21T06:00:32;13.43;;;7.07;;
14470;SDS011;7321;50.802;4.336;2024-02-21T06:02:58;8.73;;;6.13;;
14470;SDS011;7321;50.802;4.336;2024-02-21T06:05:24;9.60;;;6.30;;
14470;SDS011;7321;50.802;4.336;2024-02-21T06:07:50;14.07;;;7.60;;
14470;SDS011;7321;50.802;4.336;2024-02-21T06:10:16;11.97;;;6.60;;
14470;SDS011;7321;50.802;4.336;2024-02-21T06:12:42;8.87;;;6.40;;
14470;SDS011;7321;50.802;4.336;2024-02-21T06:15:08;9.07;;;5.83;;
14470;SDS011;7321;50.802;4.336;2024-02-21T06:17:34;10.27;;;6.07;;
14470;SDS011;7321;50.802;4.336;2024-02-21T06:20:00;8.20;;;5.77;;
14470;SDS011;7321;50.802;4.336;2024-02-21T06:22:26;9.10;;;6.80;;
14470;SDS011;7321;50.802;4.336;2024-02-21T06:24:51;7.47;;;6.30;;
14470;SDS011;7321;50.802;4.336;2024-02-21T06:27:19;17.23;;;6.83;;
14470;SDS011;7321;50.802;4.336;2024-02-21T06:29:45;9.20;;;7.00;;
14470;SDS011;7321;50.802;4.336;2024-02-21T06:32:11;10.10;;;7.10;;
14470;SDS011;7321;50.802;4.336;2024-02-21T06:34:36;10.17;;;7.10;;
14470;SDS011;7321;50.802;4.336;2024-02-21T06:37:02;11.73;;;7.93;;
14470;SDS011;7321;50.802;4.336;2024-02-21T06:39:29;14.07;;;8.50;;
14470;SDS011;7321;50.802;4.336;2024-02-21T06:41:55;11.30;;;8.20;;
14470;SDS011;7321;50.802;4.336;2024-02-21T06:44:21;13.07;;;9.27;;
14470;SDS011;7321;50.802;4.336;2024-02-21T06:46:47;12.30;;;8.73;;
14470;SDS011;7321;50.802;4.336;2024-02-21T06:49:13;11.87;;;8.43;;
14470;SDS011;7321;50.802;4.336;2024-02-21T06:51:47;13.90;;;9.33;;
14470;SDS011;7321;50.802;4.336;2024-02-21T06:54:13;12.80;;;8.83;;
14470;SDS011;7321;50.802;4.336;2024-02-21T06:56:39;12.43;;;8.60;;
14470;SDS011;7321;50.802;4.336;2024-02-21T06:59:06;12.67;;;8.67;;
14470;SDS011;7321;50.802;4.336;2024-02-21T07:01:31;16.57;;;9.37;;
14470;SDS011;7321;50.802;4.336;2024-02-21T07:03:58;15.23;;;9.90;;
14470;SDS011;7321;50.802;4.336;2024-02-21T07:06:24;13.17;;;10.50;;
14470;SDS011;7321;50.802;4.336;2024-02-21T07:08:49;14.37;;;10.43;;
14470;SDS011;7321;50.802;4.336;2024-02-21T07:11:15;15.53;;;10.30;;
14470;SDS011;7321;50.802;4.336;2024-02-21T07:13:41;13.17;;;9.83;;
14470;SDS011;7321;50.802;4.336;2024-02-21T07:16:07;15.33;;;9.90;;
14470;SDS011;7321;50.802;4.336;2024-02-21T07:18:33;17.33;;;9.67;;
14470;SDS011;7321;50.802;4.336;2024-02-21T07:20:59;13.47;;;9.60;;
14470;SDS011;7321;50.802;4.336;2024-02-21T07:23:25;12.67;;;9.60;;
14470;SDS011;7321;50.802;4.336;2024-02-21T07:25:51;13.33;;;9.73;;
14470;SDS011;7321;50.802;4.336;2024-02-21T07:28:16;11.33;;;9.63;;
14470;SDS011;7321;50.802;4.336;2024-02-21T07:30:43;12.60;;;9.20;;
14470;SDS011;7321;50.802;4.336;2024-02-21T07:33:09;13.77;;;9.90;;
14470;SDS011;7321;50.802;4.336;2024-02-21T07:35:35;12.43;;;9.53;;
14470;SDS011;7321;50.802;4.336;2024-02-21T07:38:05;15.53;;;9.50;;
14470;SDS011;7321;50.802;4.336;2024-02-21T07:40:32;12.90;;;8.10;;
14470;SDS011;7321;50.802;4.336;2024-02-21T07:42:58;13.93;;;8.50;;
14470;SDS011;7321;50.802;4.336;2024-02-21T07:45:23;14.03;;;8.63;;
14470;SDS011;7321;50.802;4.336;2024-02-21T07:47:50;11.27;;;7.83;;
14470;SDS011;7321;50.802;4.336;2024-02-21T07:50:16;11.10;;;7.70;;
14470;SDS011;7321;50.802;4.336;2024-02-21T07:52:42;12.93;;;8.07;;
14470;SDS011;7321;50.802;4.336;2024-02-21T07:55:08;10.93;;;7.03;;
14470;SDS011;7321;50.802;4.336;2024-02-21T07:57:35;11.03;;;7.37;;
14470;SDS011;7321;50.802;4.336;2024-02-21T08:00:02;9.10;;;6.80;;
14470;SDS011;7321;50.802;4.336;2024-02-21T08:02:29;9.00;;;6.30;;
14470;SDS011;7321;50.802;4.336;2024-02-21T08:04:55;6.83;;;6.07;;
14470;SDS011;7321;50.802;4.336;2024-02-21T08:07:21;9.97;;;6.60;;
14470;SDS011;7321;50.802;4.336;2024-02-21T08:09:47;10.43;;;6.30;;
14470;SDS011;7321;50.802;4.336;2024-02-21T08:12:13;9.07;;;6.80;;
14470;SDS011;7321;50.802;4.336;2024-02-21T08:14:39;12.43;;;7.13;;
14470;SDS011;7321;50.802;4.336;2024-02-21T08:17:04;9.27;;;6.17;;
14470;SDS011;7321;50.802;4.336;2024-02-21T08:19:30;8.93;;;6.50;;
14470;SDS011;7321;50.802;4.336;2024-02-21T08:21:56;8.93;;;7.10;;
14470;SDS011;7321;50.802;4.336;2024-02-21T08:24:22;9.73;;;6.37;;
14470;SDS011;7321;50.802;4.336;2024-02-21T08:26:48;9.30;;;6.43;;
14470;SDS011;7321;50.802;4.336;2024-02-21T08:29:14;9.97;;;6.50;;
14470;SDS011;7321;50.802;4.336;2024-02-21T08:31:40;10.10;;;6.47;;
14470;SDS011;7321;50.802;4.336;2024-02-21T08:34:05;10.60;;;6.20;;
14470;SDS011;7321;50.802;4.336;2024-02-21T08:36:32;10.20;;;5.97;;
14470;SDS011;7321;50.802;4.336;2024-02-21T08:38:59;10.77;;;6.23;;
14470;SDS011;7321;50.802;4.336;2024-02-21T08:41:26;10.73;;;6.37;;
14470;SDS011;7321;50.802;4.336;2024-02-21T08:43:52;9.03;;;6.07;;
14470;SDS011;7321;50.802;4.336;2024-02-21T08:46:19;11.17;;;6.77;;
14470;SDS011;7321;50.802;4.336;2024-02-21T08:48:46;8.13;;;5.40;;
14470;SDS011;7321;50.802;4.336;2024-02-21T08:51:12;8.60;;;5.93;;
14470;SDS011;7321;50.802;4.336;2024-02-21T08:53:41;7.37;;;5.47;;
14470;SDS011;7321;50.802;4.336;2024-02-21T08:56:07;8.57;;;5.97;;
14470;SDS011;7321;50.802;4.336;2024-02-21T08:58:33;14.30;;;5.87;;
14470;SDS011;7321;50.802;4.336;2024-02-21T09:01:00;6.27;;;5.30;;
14470;SDS011;7321;50.802;4.336;2024-02-21T09:03:26;7.70;;;5.50;;
14470;SDS011;7321;50.802;4.336;2024-02-21T09:05:52;5.87;;;4.73;;
14470;SDS011;7321;50.802;4.336;2024-02-21T09:08:18;8.63;;;5.23;;
14470;SDS011;7321;50.802;4.336;2024-02-21T09:10:44;8.93;;;5.23;;
14470;SDS011;7321;50.802;4.336;2024-02-21T09:13:10;7.70;;;5.03;;
14470;SDS011;7321;50.802;4.336;2024-02-21T09:15:36;8.17;;;4.87;;
14470;SDS011;7321;50.802;4.336;2024-02-21T09:18:02;5.97;;;4.93;;
14470;SDS011;7321;50.802;4.336;2024-02-21T09:20:28;8.20;;;5.27;;
14470;SDS011;7321;50.802;4.336;2024-02-21T09:22:54;5.47;;;4.70;;
14470;SDS011;7321;50.802;4.336;2024-02-21T09:25:20;6.97;;;4.80;;
14470;SDS011;7321;50.802;4.336;2024-02-21T09:27:45;6.33;;;4.53;;
14470;SDS011;7321;50.802;4.336;2024-02-21T09:30:11;8.50;;;5.27;;
14470;SDS011;7321;50.802;4.336;2024-02-21T09:32:37;8.00;;;4.87;;
14470;SDS011;7321;50.802;4.336;2024-02-21T09:35:04;10.23;;;5.93;;
14470;SDS011;7321;50.802;4.336;2024-02-21T09:37:32;7.97;;;4.60;;
14470;SDS011;7321;50.802;4.336;2024-02-21T09:39:59;7.37;;;5.13;;
14470;SDS011;7321;50.802;4.336;2024-02-21T09:42:28;6.00;;;4.30;;
14470;SDS011;7321;50.802;4.336;2024-02-21T09:45:18;7.47;;;4.77;;
14470;SDS011;7321;50.802;4.336;2024-02-21T09:50:24;7.63;;;4.70;;
14470;SDS011;7321;50.802;4.336;2024-02-21T09:52:52;8.80;;;4.67;;
14470;SDS011;7321;50.802;4.336;2024-02-21T09:55:21;9.10;;;5.30;;
14470;SDS011;7321;50.802;4.336;2024-02-21T09:57:48;5.77;;;4.47;;
14470;SDS011;7321;50.802;4.336;2024-02-21T10:00:16;7.23;;;4.47;;
14470;SDS011;7321;50.802;4.336;2024-02-21T10:02:49;6.37;;;4.00;;
14470;SDS011;7321;50.802;4.336;2024-02-21T10:05:16;7.17;;;4.20;;
14470;SDS011;7321;50.802;4.336;2024-02-21T10:07:43;6.93;;;3.83;;
14470;SDS011;7321;50.802;4.336;2024-02-21T10:10:09;7.07;;;4.23;;
14470;SDS011;7321;50.802;4.336;2024-02-21T10:12:35;8.67;;;4.60;;
14470;SDS011;7321;50.802;4.336;2024-02-21T10:15:04;6.77;;;4.07;;
14470;SDS011;7321;50.802;4.336;2024-02-21T10:17:34;6.80;;;4.30;;
14470;SDS011;7321;50.802;4.336;2024-02-21T10:20:08;7.67;;;4.40;;
14470;SDS011;7321;50.802;4.336;2024-02-21T10:22:34;8.53;;;4.60;;
14470;SDS011;7321;50.802;4.336;2024-02-21T10:25:11;11.73;;;4.50;;
14470;SDS011;7321;50.802;4.336;2024-02-21T10:27:41;9.60;;;5.33;;
14470;SDS011;7321;50.802;4.336;2024-02-21T10:30:07;9.30;;;4.63;;
14470;SDS011;7321;50.802;4.336;2024-02-21T10:32:48;10.47;;;4.87;;
14470;SDS011;7321;50.802;4.336;2024-02-21T10:35:24;7.90;;;4.40;;
14470;SDS011;7321;50.802;4.336;2024-02-21T10:37:55;9.17;;;4.27;;
14470;SDS011;7321;50.802;4.336;2024-02-21T10:40:30;8.57;;;4.43;;
14470;SDS011;7321;50.802;4.336;2024-02-21T10:42:57;8.57;;;4.53;;
14470;SDS011;7321;50.802;4.336;2024-02-21T10:45:31;8.17;;;4.50;;
14470;SDS011;7321;50.802;4.336;2024-02-21T10:48:22;8.17;;;4.23;;
14470;SDS011;7321;50.802;4.336;2024-02-21T10:56:29;12.27;;;5.43;;
14470;SDS011;7321;50.802;4.336;2024-02-21T10:58:57;6.67;;;4.67;;
14470;SDS011;7321;50.802;4.336;2024-02-21T11:01:23;6.40;;;5.00;;
14470;SDS011;7321;50.802;4.336;2024-02-21T11:03:52;7.83;;;4.50;;
14470;SDS011;7321;50.802;4.336;2024-02-21T11:06:20;6.83;;;4.17;;
14470;SDS011;7321;50.802;4.336;2024-02-21T11:08:47;5.93;;;3.90;;
14470;SDS011;7321;50.802;4.336;2024-02-21T11:11:24;10.47;;;3.63;;
14470;SDS011;7321;50.802;4.336;2024-02-21T11:13:49;6.03;;;3.73;;
14470;SDS011;7321;50.802;4.336;2024-02-21T11:16:22;6.43;;;4.07;;
14470;SDS011;7321;50.802;4.336;2024-02-21T11:18:48;10.87;;;4.17;;
14470;SDS011;7321;50.802;4.336;2024-02-21T11:21:15;7.97;;;3.90;;
14470;SDS011;7321;50.802;4.336;2024-02-21T11:23:41;5.13;;;3.77;;
14470;SDS011;7321;50.802;4.336;2024-02-21T11:26:10;9.60;;;4.83;;
14470;SDS011;7321;50.802;4.336;2024-02-21T11:28:55;4.00;;;3.60;;
14470;SDS011;7321;50.802;4.336;2024-02-21T11:31:25;7.87;;;3.80;;
14470;SDS011;7321;50.802;4.336;2024-02-21T11:33:52;6.87;;;4.00;;
14470;SDS011;7321;50.802;4.336;2024-02-21T11:36:23;6.33;;;4.20;;
14470;SDS011;7321;50.802;4.336;2024-02-21T11:38:50;5.90;;;4.27;;
14470;SDS011;7321;50.802;4.336;2024-02-21T11:41:16;7.40;;;4.07;;
14470;SDS011;7321;50.802;4.336;2024-02-21T11:43:42;8.47;;;4.10;;
14470;SDS011;7321;50.802;4.336;2024-02-21T11:46:08;9.77;;;4.77;;
14470;SDS011;7321;50.802;4.336;2024-02-21T11:48:34;6.80;;;4.77;;
14470;SDS011;7321;50.802;4.336;2024-02-21T11:51:00;6.83;;;4.37;;
14470;SDS011;7321;50.802;4.336;2024-02-21T11:53:26;7.00;;;4.40;;
14470;SDS011;7321;50.802;4.336;2024-02-21T11:55:56;6.57;;;4.40;;
14470;SDS011;7321;50.802;4.336;2024-02-21T11:58:22;11.50;;;4.43;;
14470;SDS011;7321;50.802;4.336;2024-02-21T12:00:48;8.57;;;4.80;;
14470;SDS011;7321;50.802;4.336;2024-02-21T12:03:14;10.37;;;4.60;;
14470;SDS011;7321;50.802;4.336;2024-02-21T12:05:43;9.03;;;5.00;;
14470;SDS011;7321;50.802;4.336;2024-02-21T12:08:11;5.40;;;4.53;;
14470;SDS011;7321;50.802;4.336;2024-02-21T12:10:37;9.83;;;4.70;;
14470;SDS011;7321;50.802;4.336;2024-02-21T12:13:07;7.00;;;4.57;;
14470;SDS011;7321;50.802;4.336;2024-02-21T12:15:34;8.30;;;4.77;;
14470;SDS011;7321;50.802;4.336;2024-02-21T12:18:00;9.33;;;5.13;;
14470;SDS011;7321;50.802;4.336;2024-02-21T12:20:26;9.50;;;5.00;;
14470;SDS011;7321;50.802;4.336;2024-02-21T12:22:52;9.97;;;4.63;;
14470;SDS011;7321;50.802;4.336;2024-02-21T12:25:20;8.60;;;4.83;;
14470;SDS011;7321;50.802;4.336;2024-02-21T12:27:51;8.00;;;5.30;;
14470;SDS011;7321;50.802;4.336;2024-02-21T12:30:18;11.27;;;4.80;;
14470;SDS011;7321;50.802;4.336;2024-02-21T12:32:45;7.70;;;4.57;;
14470;SDS011;7321;50.802;4.336;2024-02-21T12:35:11;7.57;;;5.00;;
14470;SDS011;7321;50.802;4.336;2024-02-21T12:37:37;10.60;;;5.10;;
14470;SDS011;7321;50.802;4.336;2024-02-21T12:40:04;8.93;;;5.10;;
14470;SDS011;7321;50.802;4.336;2024-02-21T12:42:32;7.90;;;4.67;;
14470;SDS011;7321;50.802;4.336;2024-02-21T12:44:58;7.37;;;5.17;;
14470;SDS011;7321;50.802;4.336;2024-02-21T12:47:24;8.57;;;5.03;;
14470;SDS011;7321;50.802;4.336;2024-02-21T12:49:54;8.67;;;5.10;;
14470;SDS011;7321;50.802;4.336;2024-02-21T12:52:21;9.07;;;4.83;;
14470;SDS011;7321;50.802;4.336;2024-02-21T12:54:47;8.73;;;4.90;;
14470;SDS011;7321;50.802;4.336;2024-02-21T12:57:12;8.57;;;5.07;;
14470;SDS011;7321;50.802;4.336;2024-02-21T12:59:38;8.33;;;4.93;;
14470;SDS011;7321;50.802;4.336;2024-02-21T13:02:04;8.67;;;5.37;;
14470;SDS011;7321;50.802;4.336;2024-02-21T13:04:31;7.57;;;5.20;;
14470;SDS011;7321;50.802;4.336;2024-02-21T13:06:57;8.67;;;4.60;;
14470;SDS011;7321;50.802;4.336;2024-02-21T13:09:22;12.93;;;5.23;;
14470;SDS011;7321;50.802;4.336;2024-02-21T13:11:48;7.33;;;4.77;;
14470;SDS011;7321;50.802;4.336;2024-02-21T13:14:16;6.93;;;5.00;;
14470;SDS011;7321;50.802;4.336;2024-02-21T13:16:42;7.30;;;4.93;;
14470;SDS011;7321;50.802;4.336;2024-02-21T13:19:08;6.23;;;5.00;;
14470;SDS011;7321;50.802;4.336;2024-02-21T13:21:34;8.33;;;5.33;;
14470;SDS011;7321;50.802;4.336;2024-02-21T13:24:01;11.33;;;5.50;;
14470;SDS011;7321;50.802;4.336;2024-02-21T13:26:27;6.93;;;5.10;;
14470;SDS011;7321;50.802;4.336;2024-02-21T13:28:53;8.10;;;5.23;;
14470;SDS011;7321;50.802;4.336;2024-02-21T13:31:20;9.97;;;4.77;;
14470;SDS011;7321;50.802;4.336;2024-02-21T13:33:46;8.13;;;4.97;;
14470;SDS011;7321;50.802;4.336;2024-02-21T13:36:12;12.20;;;5.40;;
14470;SDS011;7321;50.802;4.336;2024-02-21T13:38:38;7.40;;;4.97;;
14470;SDS011;7321;50.802;4.336;2024-02-21T13:41:07;9.00;;;5.30;;
14470;SDS011;7321;50.802;4.336;2024-02-21T13:43:33;7.63;;;5.00;;
14470;SDS011;7321;50.802;4.336;2024-02-21T13:46:00;5.90;;;4.70;;
14470;SDS011;7321;50.802;4.336;2024-02-21T13:48:27;9.10;;;4.90;;
14470;SDS011;7321;50.802;4.336;2024-02-21T13:50:55;9.33;;;5.50;;
14470;SDS011;7321;50.802;4.336;2024-02-21T13:53:21;7.77;;;5.10;;
14470;SDS011;7321;50.802;4.336;2024-02-21T13:55:48;6.83;;;5.10;;
14470;SDS011;7321;50.802;4.336;2024-02-21T13:58:15;5.63;;;4.90;;
14470;SDS011;7321;50.802;4.336;2024-02-21T14:00:41;7.57;;;4.97;;
14470;SDS011;7321;50.802;4.336;2024-02-21T14:03:07;7.70;;;5.80;;
14470;SDS011;7321;50.802;4.336;2024-02-21T14:05:33;9.57;;;5.30;;
14470;SDS011;7321;50.802;4.336;2024-02-21T14:07:59;7.10;;;4.90;;
14470;SDS011;7321;50.802;4.336;2024-02-21T14:10:24;8.93;;;5.33;;
14470;SDS011;7321;50.802;4.336;2024-02-21T14:12:50;8.83;;;5.70;;
14470;SDS011;7321;50.802;4.336;2024-02-21T14:15:16;11.87;;;5.67;;
14470;SDS011;7321;50.802;4.336;2024-02-21T14:17:42;6.97;;;5.20;;
14470;SDS011;7321;50.802;4.336;2024-02-21T14:20:08;10.10;;;6.00;;
14470;SDS011;7321;50.802;4.336;2024-02-21T14:22:34;8.90;;;5.80;;
14470;SDS011;7321;50.802;4.336;2024-02-21T14:25:03;7.57;;;5.23;;
14470;SDS011;7321;50.802;4.336;2024-02-21T14:27:32;7.13;;;5.30;;
14470;SDS011;7321;50.802;4.336;2024-02-21T14:29:58;11.87;;;6.63;;
14470;SDS011;7321;50.802;4.336;2024-02-21T14:32:23;8.83;;;5.37;;
14470;SDS011;7321;50.802;4.336;2024-02-21T14:34:52;7.50;;;5.07;;
14470;SDS011;7321;50.802;4.336;2024-02-21T14:37:17;9.17;;;5.20;;
14470;SDS011;7321;50.802;4.336;2024-02-21T14:39:43;7.90;;;5.63;;
14470;SDS011;7321;50.802;4.336;2024-02-21T14:42:09;8.60;;;5.73;;
14470;SDS011;7321;50.802;4.336;2024-02-21T14:44:35;7.20;;;5.60;;
14470;SDS011;7321;50.802;4.336;2024-02-21T14:47:02;8.80;;;5.47;;
14470;SDS011;7321;50.802;4.336;2024-02-21T14:49:31;6.83;;;4.80;;
14470;SDS011;7321;50.802;4.336;2024-02-21T14:51:57;6.27;;;5.50;;
14470;SDS011;7321;50.802;4.336;2024-02-21T14:54:23;7.03;;;4.87;;
14470;SDS011;7321;50.802;4.336;2024-02-21T14:56:49;9.80;;;5.80;;
14470;SDS011;7321;50.802;4.336;2024-02-21T14:59:15;6.40;;;5.20;;